sensor_id;sensor_type;location;lat;lon;timestamp;P1;P2;P0
84223;PMS5003;74353;51.208;0.304;2024-02-26T00:01:32;1;1;
84223;PMS5003;74353;51.208;0.304;2024-02-26T00:03:59;7;7;
84223;PMS5003;74353;51.208;0.304;2024-02-26T00:06:24;8;8;
84223;PMS5003;74353;51.208;0.304;2024-02-26T00:08:51;13;6;
84223;PMS5003;74353;51.208;0.304;2024-02-26T00:11:17;30;12;
84223;PMS5003;74353;51.208;0.304;2024-02-26T00:13:45;4;4;
84223;PMS5003;74353;51.208;0.304;2024-02-26T00:16:11;8;8;
84223;PMS5003;74353;51.208;0.304;2024-02-26T00:18:37;11;11;
84223;PMS5003;74353;51.208;0.304;2024-02-26T00:21:04;8;8;
84223;PMS5003;74353;51.208;0.304;2024-02-26T00:23:32;9;9;
84223;PMS5003;74353;51.208;0.304;2024-02-26T00:25:57;10;8;
84223;PMS5003;74353;51.208;0.304;2024-02-26T00:28:26;12;8;
84223;PMS5003;74353;51.208;0.304;2024-02-26T00:30:54;13;13;
84223;PMS5003;74353;51.208;0.304;2024-02-26T00:33:20;17;15;
84223;PMS5003;74353;51.208;0.304;2024-02-26T00:35:45;10;10;
84223;PMS5003;74353;51.208;0.304;2024-02-26T00:38:13;10;5;
84223;PMS5003;74353;51.208;0.304;2024-02-26T00:40:39;6;6;
84223;PMS5003;74353;51.208;0.304;2024-02-26T00:43:05;18;15;
84223;PMS5003;74353;51.208;0.304;2024-02-26T00:45:30;9;9;
84223;PMS5003;74353;51.208;0.304;2024-02-26T00:47:56;17;17;
84223;PMS5003;74353;51.208;0.304;2024-02-26T00:50:21;13;13;
84223;PMS5003;74353;51.208;0.304;2024-02-26T00:52:46;14;14;
84223;PMS5003;74353;51.208;0.304;2024-02-26T00:55:12;15;15;
84223;PMS5003;74353;51.208;0.304;2024-02-26T00:57:37;5;5;
84223;PMS5003;74353;51.208;0.304;2024-02-26T01:00:05;10;10;
84223;PMS5003;74353;51.208;0.304;2024-02-26T01:02:32;7;7;
84223;PMS5003;74353;51.208;0.304;2024-02-26T01:04:59;7;7;
84223;PMS5003;74353;51.208;0.304;2024-02-26T01:07:24;15;7;
84223;PMS5003;74353;51.208;0.304;2024-02-26T01:09:52;9;9;
84223;PMS5003;74353;51.208;0.304;2024-02-26T01:12:17;19;18;
84223;PMS5003;74353;51.208;0.304;2024-02-26T01:14:42;13;9;
84223;PMS5003;74353;51.208;0.304;2024-02-26T01:17:08;16;16;
84223;PMS5003;74353;51.208;0.304;2024-02-26T01:19:34;24;23;
84223;PMS5003;74353;51.208;0.304;2024-02-26T01:21:59;16;15;
84223;PMS5003;74353;51.208;0.304;2024-02-26T01:24:24;20;18;
84223;PMS5003;74353;51.208;0.304;2024-02-26T01:26:51;14;14;
84223;PMS5003;74353;51.208;0.304;2024-02-26T01:29:17;12;12;
84223;PMS5003;74353;51.208;0.304;2024-02-26T01:31:42;18;14;
84223;PMS5003;74353;51.208;0.304;2024-02-26T01:34:18;19;19;
84223;PMS5003;74353;51.208;0.304;2024-02-26T01:36:34;15;15;
84223;PMS5003;74353;51.208;0.304;2024-02-26T01:39:02;14;14;
84223;PMS5003;74353;51.208;0.304;2024-02-26T01:41:27;13;13;
84223;PMS5003;74353;51.208;0.304;2024-02-26T01:43:55;19;19;
84223;PMS5003;74353;51.208;0.304;2024-02-26T01:46:20;22;22;
84223;PMS5003;74353;51.208;0.304;2024-02-26T01:48:45;15;15;
84223;PMS5003;74353;51.208;0.304;2024-02-26T01:51:12;13;13;
84223;PMS5003;74353;51.208;0.304;2024-02-26T01:53:42;18;18;
84223;PMS5003;74353;51.208;0.304;2024-02-26T01:56:03;23;19;
84223;PMS5003;74353;51.208;0.304;2024-02-26T01:58:32;26;21;
84223;PMS5003;74353;51.208;0.304;2024-02-26T02:00:58;21;21;
84223;PMS5003;74353;51.208;0.304;2024-02-26T02:03:23;20;19;
84223;PMS5003;74353;51.208;0.304;2024-02-26T02:05:49;25;19;
84223;PMS5003;74353;51.208;0.304;2024-02-26T02:08:15;24;21;
84223;PMS5003;74353;51.208;0.304;2024-02-26T02:10:40;11;11;
84223;PMS5003;74353;51.208;0.304;2024-02-26T02:13:08;17;17;
84223;PMS5003;74353;51.208;0.304;2024-02-26T02:15:33;20;20;
84223;PMS5003;74353;51.208;0.304;2024-02-26T02:17:58;33;30;
84223;PMS5003;74353;51.208;0.304;2024-02-26T02:20:31;22;22;
84223;PMS5003;74353;51.208;0.304;2024-02-26T02:22:55;28;24;
84223;PMS5003;74353;51.208;0.304;2024-02-26T02:25:20;21;17;
84223;PMS5003;74353;51.208;0.304;2024-02-26T02:27:48;17;17;
84223;PMS5003;74353;51.208;0.304;2024-02-26T02:30:16;20;17;
84223;PMS5003;74353;51.208;0.304;2024-02-26T02:32:42;19;19;
84223;PMS5003;74353;51.208;0.304;2024-02-26T02:35:10;27;27;
84223;PMS5003;74353;51.208;0.304;2024-02-26T02:37:37;14;14;
84223;PMS5003;74353;51.208;0.304;2024-02-26T02:40:04;16;16;
84223;PMS5003;74353;51.208;0.304;2024-02-26T02:42:30;13;13;
84223;PMS5003;74353;51.208;0.304;2024-02-26T02:44:57;16;16;
84223;PMS5003;74353;51.208;0.304;2024-02-26T02:47:22;12;12;
84223;PMS5003;74353;51.208;0.304;2024-02-26T02:49:50;15;15;
84223;PMS5003;74353;51.208;0.304;2024-02-26T02:52:16;13;13;
84223;PMS5003;74353;51.208;0.304;2024-02-26T02:54:42;21;21;
84223;PMS5003;74353;51.208;0.304;2024-02-26T02:57:08;20;14;
84223;PMS5003;74353;51.208;0.304;2024-02-26T02:59:33;17;17;
84223;PMS5003;74353;51.208;0.304;2024-02-26T03:02:04;11;11;
84223;PMS5003;74353;51.208;0.304;2024-02-26T03:04:30;17;17;
84223;PMS5003;74353;51.208;0.304;2024-02-26T03:06:57;15;15;
84223;PMS5003;74353;51.208;0.304;2024-02-26T03:09:25;10;10;
84223;PMS5003;74353;51.208;0.304;2024-02-26T03:11:52;11;11;
84223;PMS5003;74353;51.208;0.304;2024-02-26T03:14:17;11;6;
84223;PMS5003;74353;51.208;0.304;2024-02-26T03:16:43;18;18;
84223;PMS5003;74353;51.208;0.304;2024-02-26T03:19:08;7;7;
84223;PMS5003;74353;51.208;0.304;2024-02-26T03:21:36;9;9;
84223;PMS5003;74353;51.208;0.304;2024-02-26T03:24:01;15;11;
84223;PMS5003;74353;51.208;0.304;2024-02-26T03:26:28;15;15;
84223;PMS5003;74353;51.208;0.304;2024-02-26T03:28:54;14;14;
84223;PMS5003;74353;51.208;0.304;2024-02-26T03:31:22;4;4;
84223;PMS5003;74353;51.208;0.304;2024-02-26T03:33:47;20;17;
84223;PMS5003;74353;51.208;0.304;2024-02-26T03:36:12;17;17;
84223;PMS5003;74353;51.208;0.304;2024-02-26T03:38:42;12;12;
84223;PMS5003;74353;51.208;0.304;2024-02-26T03:41:08;16;6;
84223;PMS5003;74353;51.208;0.304;2024-02-26T03:43:34;15;13;
84223;PMS5003;74353;51.208;0.304;2024-02-26T03:45:59;17;17;
84223;PMS5003;74353;51.208;0.304;2024-02-26T03:48:28;14;14;
84223;PMS5003;74353;51.208;0.304;2024-02-26T03:50:54;21;20;
84223;PMS5003;74353;51.208;0.304;2024-02-26T03:53:18;19;19;
84223;PMS5003;74353;51.208;0.304;2024-02-26T03:55:44;11;11;
84223;PMS5003;74353;51.208;0.304;2024-02-26T03:58:12;11;11;
84223;PMS5003;74353;51.208;0.304;2024-02-26T04:00:36;28;20;
84223;PMS5003;74353;51.208;0.304;2024-02-26T04:03:02;20;18;
84223;PMS5003;74353;51.208;0.304;2024-02-26T04:05:27;13;13;
84223;PMS5003;74353;51.208;0.304;2024-02-26T04:07:52;14;14;
84223;PMS5003;74353;51.208;0.304;2024-02-26T04:10:20;12;12;
84223;PMS5003;74353;51.208;0.304;2024-02-26T04:12:46;19;17;
84223;PMS5003;74353;51.208;0.304;2024-02-26T04:15:12;15;13;
84223;PMS5003;74353;51.208;0.304;2024-02-26T04:17:38;13;12;
84223;PMS5003;74353;51.208;0.304;2024-02-26T04:20:04;20;20;
84223;PMS5003;74353;51.208;0.304;2024-02-26T04:22:29;15;15;
84223;PMS5003;74353;51.208;0.304;2024-02-26T04:24:56;12;12;
84223;PMS5003;74353;51.208;0.304;2024-02-26T04:27:23;9;9;
84223;PMS5003;74353;51.208;0.304;2024-02-26T04:29:48;22;19;
84223;PMS5003;74353;51.208;0.304;2024-02-26T04:32:15;7;7;
84223;PMS5003;74353;51.208;0.304;2024-02-26T04:34:41;27;24;
84223;PMS5003;74353;51.208;0.304;2024-02-26T04:37:07;20;14;
84223;PMS5003;74353;51.208;0.304;2024-02-26T04:39:33;16;14;
84223;PMS5003;74353;51.208;0.304;2024-02-26T04:41:59;23;23;
84223;PMS5003;74353;51.208;0.304;2024-02-26T04:44:24;20;20;
84223;PMS5003;74353;51.208;0.304;2024-02-26T04:46:52;15;9;
84223;PMS5003;74353;51.208;0.304;2024-02-26T04:49:18;13;13;
84223;PMS5003;74353;51.208;0.304;2024-02-26T04:51:45;11;11;
84223;PMS5003;74353;51.208;0.304;2024-02-26T04:54:12;7;7;
84223;PMS5003;74353;51.208;0.304;2024-02-26T04:56:37;10;9;
84223;PMS5003;74353;51.208;0.304;2024-02-26T04:59:03;16;16;
84223;PMS5003;74353;51.208;0.304;2024-02-26T05:01:28;9;9;
84223;PMS5003;74353;51.208;0.304;2024-02-26T05:03:53;17;17;
84223;PMS5003;74353;51.208;0.304;2024-02-26T05:06:21;36;16;
84223;PMS5003;74353;51.208;0.304;2024-02-26T05:08:47;17;16;
84223;PMS5003;74353;51.208;0.304;2024-02-26T05:11:13;4;4;
84223;PMS5003;74353;51.208;0.304;2024-02-26T05:13:38;14;12;
84223;PMS5003;74353;51.208;0.304;2024-02-26T05:16:04;21;21;
84223;PMS5003;74353;51.208;0.304;2024-02-26T05:18:30;14;14;
84223;PMS5003;74353;51.208;0.304;2024-02-26T05:20:57;4;4;
84223;PMS5003;74353;51.208;0.304;2024-02-26T05:23:25;13;13;
84223;PMS5003;74353;51.208;0.304;2024-02-26T05:25:50;14;14;
84223;PMS5003;74353;51.208;0.304;2024-02-26T05:28:16;11;11;
84223;PMS5003;74353;51.208;0.304;2024-02-26T05:30:41;19;15;
84223;PMS5003;74353;51.208;0.304;2024-02-26T05:33:07;13;13;
84223;PMS5003;74353;51.208;0.304;2024-02-26T05:35:32;8;8;
84223;PMS5003;74353;51.208;0.304;2024-02-26T05:38:00;7;7;
84223;PMS5003;74353;51.208;0.304;2024-02-26T05:40:26;27;14;
84223;PMS5003;74353;51.208;0.304;2024-02-26T05:42:52;10;10;
84223;PMS5003;74353;51.208;0.304;2024-02-26T05:45:18;12;9;
84223;PMS5003;74353;51.208;0.304;2024-02-26T05:47:44;12;10;
84223;PMS5003;74353;51.208;0.304;2024-02-26T05:50:10;7;7;
84223;PMS5003;74353;51.208;0.304;2024-02-26T05:52:37;6;6;
84223;PMS5003;74353;51.208;0.304;2024-02-26T05:55:05;8;8;
84223;PMS5003;74353;51.208;0.304;2024-02-26T05:57:33;12;12;
84223;PMS5003;74353;51.208;0.304;2024-02-26T06:00:02;4;4;
84223;PMS5003;74353;51.208;0.304;2024-02-26T06:02:28;10;10;
84223;PMS5003;74353;51.208;0.304;2024-02-26T06:04:56;12;12;
84223;PMS5003;74353;51.208;0.304;2024-02-26T06:07:22;9;9;
84223;PMS5003;74353;51.208;0.304;2024-02-26T06:09:48;0;0;
84223;PMS5003;74353;51.208;0.304;2024-02-26T06:12:13;3;3;
84223;PMS5003;74353;51.208;0.304;2024-02-26T06:14:41;8;8;
84223;PMS5003;74353;51.208;0.304;2024-02-26T06:17:13;3;3;
84223;PMS5003;74353;51.208;0.304;2024-02-26T06:19:40;13;13;
84223;PMS5003;74353;51.208;0.304;2024-02-26T06:22:06;6;6;
84223;PMS5003;74353;51.208;0.304;2024-02-26T06:24:32;8;8;
84223;PMS5003;74353;51.208;0.304;2024-02-26T06:26:59;6;6;
84223;PMS5003;74353;51.208;0.304;2024-02-26T06:29:24;4;4;
84223;PMS5003;74353;51.208;0.304;2024-02-26T06:31:52;2;2;
84223;PMS5003;74353;51.208;0.304;2024-02-26T06:34:18;5;5;
84223;PMS5003;74353;51.208;0.304;2024-02-26T06:36:45;1;1;
84223;PMS5003;74353;51.208;0.304;2024-02-26T06:39:13;2;2;
84223;PMS5003;74353;51.208;0.304;2024-02-26T06:41:39;6;3;
84223;PMS5003;74353;51.208;0.304;2024-02-26T06:44:04;6;6;
84223;PMS5003;74353;51.208;0.304;2024-02-26T06:46:32;12;6;
84223;PMS5003;74353;51.208;0.304;2024-02-26T06:48:59;4;4;
84223;PMS5003;74353;51.208;0.304;2024-02-26T06:51:24;7;7;
84223;PMS5003;74353;51.208;0.304;2024-02-26T06:53:50;13;2;
84223;PMS5003;74353;51.208;0.304;2024-02-26T06:56:16;9;9;
84223;PMS5003;74353;51.208;0.304;2024-02-26T06:58:41;5;5;
84223;PMS5003;74353;51.208;0.304;2024-02-26T07:01:07;3;3;
84223;PMS5003;74353;51.208;0.304;2024-02-26T07:03:33;5;5;
84223;PMS5003;74353;51.208;0.304;2024-02-26T07:05:58;4;4;
84223;PMS5003;74353;51.208;0.304;2024-02-26T07:08:26;7;7;
84223;PMS5003;74353;51.208;0.304;2024-02-26T07:10:54;5;5;
84223;PMS5003;74353;51.208;0.304;2024-02-26T07:13:22;5;5;
84223;PMS5003;74353;51.208;0.304;2024-02-26T07:15:48;2;2;
84223;PMS5003;74353;51.208;0.304;2024-02-26T07:18:14;0;0;
84223;PMS5003;74353;51.208;0.304;2024-02-26T07:20:41;4;4;
84223;PMS5003;74353;51.208;0.304;2024-02-26T07:23:06;1;1;
84223;PMS5003;74353;51.208;0.304;2024-02-26T07:25:33;0;0;
84223;PMS5003;74353;51.208;0.304;2024-02-26T07:28:01;1;1;
84223;PMS5003;74353;51.208;0.304;2024-02-26T07:30:29;6;2;
84223;PMS5003;74353;51.208;0.304;2024-02-26T07:32:54;6;2;
84223;PMS5003;74353;51.208;0.304;2024-02-26T07:35:22;0;0;
84223;PMS5003;74353;51.208;0.304;2024-02-26T07:37:47;3;3;
84223;PMS5003;74353;51.208;0.304;2024-02-26T07:40:15;4;4;
84223;PMS5003;74353;51.208;0.304;2024-02-26T07:42:40;6;5;
84223;PMS5003;74353;51.208;0.304;2024-02-26T07:45:06;1;1;
84223;PMS5003;74353;51.208;0.304;2024-02-26T07:47:32;0;0;
84223;PMS5003;74353;51.208;0.304;2024-02-26T07:49:57;0;0;
84223;PMS5003;74353;51.208;0.304;2024-02-26T07:52:23;1;1;
84223;PMS5003;74353;51.208;0.304;2024-02-26T07:54:51;0;0;
84223;PMS5003;74353;51.208;0.304;2024-02-26T07:57:17;2;2;
84223;PMS5003;74353;51.208;0.304;2024-02-26T07:59:43;0;0;
84223;PMS5003;74353;51.208;0.304;2024-02-26T08:02:10;0;0;
84223;PMS5003;74353;51.208;0.304;2024-02-26T08:04:35;0;0;
84223;PMS5003;74353;51.208;0.304;2024-02-26T08:07:05;3;3;
84223;PMS5003;74353;51.208;0.304;2024-02-26T08:09:30;2;2;
84223;PMS5003;74353;51.208;0.304;2024-02-26T08:11:56;3;3;
84223;PMS5003;74353;51.208;0.304;2024-02-26T08:14:21;0;0;
84223;PMS5003;74353;51.208;0.304;2024-02-26T08:16:47;6;2;
84223;PMS5003;74353;51.208;0.304;2024-02-26T08:19:15;0;0;
84223;PMS5003;74353;51.208;0.304;2024-02-26T08:21:40;0;0;
84223;PMS5003;74353;51.208;0.304;2024-02-26T08:24:07;0;0;
84223;PMS5003;74353;51.208;0.304;2024-02-26T08:26:33;6;3;
84223;PMS5003;74353;51.208;0.304;2024-02-26T08:29:07;2;2;
84223;PMS5003;74353;51.208;0.304;2024-02-26T08:31:34;5;4;
84223;PMS5003;74353;51.208;0.304;2024-02-26T08:33:58;1;1;
84223;PMS5003;74353;51.208;0.304;2024-02-26T08:36:26;0;0;
84223;PMS5003;74353;51.208;0.304;2024-02-26T08:38:52;2;2;
84223;PMS5003;74353;51.208;0.304;2024-02-26T08:41:18;3;3;
84223;PMS5003;74353;51.208;0.304;2024-02-26T08:43:44;1;1;
84223;PMS5003;74353;51.208;0.304;2024-02-26T08:46:12;2;2;
84223;PMS5003;74353;51.208;0.304;2024-02-26T08:48:38;2;2;
84223;PMS5003;74353;51.208;0.304;2024-02-26T08:51:04;4;1;
84223;PMS5003;74353;51.208;0.304;2024-02-26T08:53:31;1;1;
84223;PMS5003;74353;51.208;0.304;2024-02-26T08:55:58;4;4;
84223;PMS5003;74353;51.208;0.304;2024-02-26T08:58:23;0;0;
84223;PMS5003;74353;51.208;0.304;2024-02-26T09:00:49;1;1;
84223;PMS5003;74353;51.208;0.304;2024-02-26T09:03:15;5;5;
84223;PMS5003;74353;51.208;0.304;2024-02-26T09:05:40;6;3;
84223;PMS5003;74353;51.208;0.304;2024-02-26T09:08:08;1;1;
84223;PMS5003;74353;51.208;0.304;2024-02-26T09:10:33;8;0;
84223;PMS5003;74353;51.208;0.304;2024-02-26T09:13:02;0;0;
84223;PMS5003;74353;51.208;0.304;2024-02-26T09:15:27;1;1;
84223;PMS5003;74353;51.208;0.304;2024-02-26T09:17:55;0;0;
84223;PMS5003;74353;51.208;0.304;2024-02-26T09:20:20;2;2;
84223;PMS5003;74353;51.208;0.304;2024-02-26T09:22:47;1;1;
84223;PMS5003;74353;51.208;0.304;2024-02-26T09:25:13;4;4;
84223;PMS5003;74353;51.208;0.304;2024-02-26T09:27:41;0;0;
84223;PMS5003;74353;51.208;0.304;2024-02-26T09:30:08;0;0;
84223;PMS5003;74353;51.208;0.304;2024-02-26T09:32:33;1;1;
84223;PMS5003;74353;51.208;0.304;2024-02-26T09:34:59;0;0;
84223;PMS5003;74353;51.208;0.304;2024-02-26T09:37:26;2;2;
84223;PMS5003;74353;51.208;0.304;2024-02-26T09:39:52;0;0;
84223;PMS5003;74353;51.208;0.304;2024-02-26T09:42:20;2;2;
84223;PMS5003;74353;51.208;0.304;2024-02-26T09:44:45;2;0;
84223;PMS5003;74353;51.208;0.304;2024-02-26T09:47:12;2;2;
84223;PMS5003;74353;51.208;0.304;2024-02-26T09:49:38;4;4;
84223;PMS5003;74353;51.208;0.304;2024-02-26T09:52:05;1;1;
84223;PMS5003;74353;51.208;0.304;2024-02-26T09:54:32;0;0;
84223;PMS5003;74353;51.208;0.304;2024-02-26T09:57:02;0;0;
84223;PMS5003;74353;51.208;0.304;2024-02-26T09:59:27;0;0;
84223;PMS5003;74353;51.208;0.304;2024-02-26T10:01:53;1;1;
84223;PMS5003;74353;51.208;0.304;2024-02-26T10:04:21;0;0;
84223;PMS5003;74353;51.208;0.304;2024-02-26T10:06:48;1;1;
84223;PMS5003;74353;51.208;0.304;2024-02-26T10:09:14;0;0;
84223;PMS5003;74353;51.208;0.304;2024-02-26T10:11:40;1;1;
84223;PMS5003;74353;51.208;0.304;2024-02-26T10:14:07;1;1;
84223;PMS5003;74353;51.208;0.304;2024-02-26T10:16:33;1;1;
84223;PMS5003;74353;51.208;0.304;2024-02-26T10:18:58;4;4;
84223;PMS5003;74353;51.208;0.304;2024-02-26T10:21:26;0;0;
84223;PMS5003;74353;51.208;0.304;2024-02-26T10:23:51;1;1;
84223;PMS5003;74353;51.208;0.304;2024-02-26T10:26:17;0;0;
84223;PMS5003;74353;51.208;0.304;2024-02-26T10:28:43;0;0;
84223;PMS5003;74353;51.208;0.304;2024-02-26T10:31:08;4;2;
84223;PMS5003;74353;51.208;0.304;2024-02-26T10:33:35;2;2;
84223;PMS5003;74353;51.208;0.304;2024-02-26T10:36:03;0;0;
84223;PMS5003;74353;51.208;0.304;2024-02-26T10:38:31;1;1;
84223;PMS5003;74353;51.208;0.304;2024-02-26T10:40:56;1;1;
84223;PMS5003;74353;51.208;0.304;2024-02-26T10:43:25;1;1;
84223;PMS5003;74353;51.208;0.304;2024-02-26T10:45:50;0;0;
84223;PMS5003;74353;51.208;0.304;2024-02-26T10:48:16;0;0;
84223;PMS5003;74353;51.208;0.304;2024-02-26T10:50:43;0;0;
84223;PMS5003;74353;51.208;0.304;2024-02-26T10:53:11;2;1;
84223;PMS5003;74353;51.208;0.304;2024-02-26T10:55:35;19;5;
84223;PMS5003;74353;51.208;0.304;2024-02-26T10:58:02;2;2;
84223;PMS5003;74353;51.208;0.304;2024-02-26T11:00:30;0;0;
84223;PMS5003;74353;51.208;0.304;2024-02-26T11:02:56;3;3;
84223;PMS5003;74353;51.208;0.304;2024-02-26T11:05:22;2;2;
84223;PMS5003;74353;51.208;0.304;2024-02-26T11:07:49;1;1;
84223;PMS5003;74353;51.208;0.304;2024-02-26T11:10:18;0;0;
84223;PMS5003;74353;51.208;0.304;2024-02-26T11:12:45;1;1;
84223;PMS5003;74353;51.208;0.304;2024-02-26T11:15:10;1;1;
84223;PMS5003;74353;51.208;0.304;2024-02-26T11:17:37;14;0;
84223;PMS5003;74353;51.208;0.304;2024-02-26T11:20:04;7;7;
84223;PMS5003;74353;51.208;0.304;2024-02-26T11:22:32;0;0;
84223;PMS5003;74353;51.208;0.304;2024-02-26T11:24:57;3;0;
84223;PMS5003;74353;51.208;0.304;2024-02-26T11:27:30;1;1;
84223;PMS5003;74353;51.208;0.304;2024-02-26T11:29:49;0;0;
84223;PMS5003;74353;51.208;0.304;2024-02-26T11:32:16;0;0;
84223;PMS5003;74353;51.208;0.304;2024-02-26T11:34:42;0;0;
84223;PMS5003;74353;51.208;0.304;2024-02-26T11:37:09;0;0;
84223;PMS5003;74353;51.208;0.304;2024-02-26T11:39:36;0;0;
84223;PMS5003;74353;51.208;0.304;2024-02-26T11:42:05;0;0;
84223;PMS5003;74353;51.208;0.304;2024-02-26T11:44:33;0;0;
84223;PMS5003;74353;51.208;0.304;2024-02-26T11:47:04;0;0;
84223;PMS5003;74353;51.208;0.304;2024-02-26T11:49:30;1;1;
84223;PMS5003;74353;51.208;0.304;2024-02-26T11:51:51;1;1;
84223;PMS5003;74353;51.208;0.304;2024-02-26T11:56:44;0;0;
84223;PMS5003;74353;51.208;0.304;2024-02-26T11:59:10;0;0;
84223;PMS5003;74353;51.208;0.304;2024-02-26T12:01:37;3;3;
84223;PMS5003;74353;51.208;0.304;2024-02-26T12:04:07;3;0;
84223;PMS5003;74353;51.208;0.304;2024-02-26T12:06:41;0;0;
84223;PMS5003;74353;51.208;0.304;2024-02-26T12:09:03;1;1;
84223;PMS5003;74353;51.208;0.304;2024-02-26T12:11:29;0;0;
84223;PMS5003;74353;51.208;0.304;2024-02-26T12:13:54;0;0;
84223;PMS5003;74353;51.208;0.304;2024-02-26T12:18:47;1;1;
84223;PMS5003;74353;51.208;0.304;2024-02-26T12:21:12;0;0;
84223;PMS5003;74353;51.208;0.304;2024-02-26T12:23:38;0;0;
84223;PMS5003;74353;51.208;0.304;2024-02-26T12:26:03;1;1;
84223;PMS5003;74353;51.208;0.304;2024-02-26T12:28:30;3;2;
84223;PMS5003;74353;51.208;0.304;2024-02-26T12:30:55;1;1;
84223;PMS5003;74353;51.208;0.304;2024-02-26T12:33:21;3;0;
84223;PMS5003;74353;51.208;0.304;2024-02-26T12:35:48;1;1;
84223;PMS5003;74353;51.208;0.304;2024-02-26T12:38:20;0;0;
84223;PMS5003;74353;51.208;0.304;2024-02-26T12:40:45;1;1;
84223;PMS5003;74353;51.208;0.304;2024-02-26T12:43:11;0;0;
84223;PMS5003;74353;51.208;0.304;2024-02-26T12:45:38;0;0;
84223;PMS5003;74353;51.208;0.304;2024-02-26T12:48:05;0;0;
84223;PMS5003;74353;51.208;0.304;2024-02-26T12:50:32;0;0;
84223;PMS5003;74353;51.208;0.304;2024-02-26T12:52:58;2;2;
84223;PMS5003;74353;51.208;0.304;2024-02-26T12:55:24;1;1;
84223;PMS5003;74353;51.208;0.304;2024-02-26T12:57:50;1;1;
84223;PMS5003;74353;51.208;0.304;2024-02-26T13:00:16;2;2;
84223;PMS5003;74353;51.208;0.304;2024-02-26T13:02:40;0;0;
84223;PMS5003;74353;51.208;0.304;2024-02-26T13:05:08;3;3;
84223;PMS5003;74353;51.208;0.304;2024-02-26T13:07:33;1;1;
84223;PMS5003;74353;51.208;0.304;2024-02-26T13:09:58;0;0;
84223;PMS5003;74353;51.208;0.304;2024-02-26T13:12:26;2;2;
84223;PMS5003;74353;51.208;0.304;2024-02-26T13:14:58;3;3;
84223;PMS5003;74353;51.208;0.304;2024-02-26T13:17:21;0;0;
84223;PMS5003;74353;51.208;0.304;2024-02-26T13:19:49;0;0;
84223;PMS5003;74353;51.208;0.304;2024-02-26T13:22:11;0;0;
84223;PMS5003;74353;51.208;0.304;2024-02-26T13:24:37;1;1;
84223;PMS5003;74353;51.208;0.304;2024-02-26T13:27:05;0;0;
84223;PMS5003;74353;51.208;0.304;2024-02-26T13:29:30;1;1;
84223;PMS5003;74353;51.208;0.304;2024-02-26T13:31:55;0;0;
84223;PMS5003;74353;51.208;0.304;2024-02-26T13:34:23;0;0;
84223;PMS5003;74353;51.208;0.304;2024-02-26T13:36:48;2;2;
84223;PMS5003;74353;51.208;0.304;2024-02-26T13:39:20;2;2;
84223;PMS5003;74353;51.208;0.304;2024-02-26T13:41:39;0;0;
84223;PMS5003;74353;51.208;0.304;2024-02-26T13:44:05;0;0;
84223;PMS5003;74353;51.208;0.304;2024-02-26T13:46:31;3;3;
84223;PMS5003;74353;51.208;0.304;2024-02-26T13:48:59;0;0;
84223;PMS5003;74353;51.208;0.304;2024-02-26T13:51:24;0;0;
84223;PMS5003;74353;51.208;0.304;2024-02-26T13:53:49;3;1;
84223;PMS5003;74353;51.208;0.304;2024-02-26T13:56:23;0;0;
84223;PMS5003;74353;51.208;0.304;2024-02-26T13:58:48;1;1;
84223;PMS5003;74353;51.208;0.304;2024-02-26T14:01:14;0;0;
84223;PMS5003;74353;51.208;0.304;2024-02-26T14:03:42;0;0;
84223;PMS5003;74353;51.208;0.304;2024-02-26T14:06:09;1;1;
84223;PMS5003;74353;51.208;0.304;2024-02-26T14:08:34;0;0;
84223;PMS5003;74353;51.208;0.304;2024-02-26T14:11:00;0;0;
84223;PMS5003;74353;51.208;0.304;2024-02-26T14:13:26;0;0;
84223;PMS5003;74353;51.208;0.304;2024-02-26T14:15:51;0;0;
84223;PMS5003;74353;51.208;0.304;2024-02-26T14:18:19;0;0;
84223;PMS5003;74353;51.208;0.304;2024-02-26T14:20:46;0;0;
84223;PMS5003;74353;51.208;0.304;2024-02-26T14:23:13;0;0;
84223;PMS5003;74353;51.208;0.304;2024-02-26T14:25:40;0;0;
84223;PMS5003;74353;51.208;0.304;2024-02-26T14:28:06;1;1;
84223;PMS5003;74353;51.208;0.304;2024-02-26T14:30:33;0;0;
84223;PMS5003;74353;51.208;0.304;2024-02-26T14:32:58;0;0;
84223;PMS5003;74353;51.208;0.304;2024-02-26T14:35:23;1;1;
84223;PMS5003;74353;51.208;0.304;2024-02-26T14:37:49;1;1;
84223;PMS5003;74353;51.208;0.304;2024-02-26T14:40:15;0;0;
84223;PMS5003;74353;51.208;0.304;2024-02-26T14:42:41;0;0;
84223;PMS5003;74353;51.208;0.304;2024-02-26T14:45:09;0;0;
84223;PMS5003;74353;51.208;0.304;2024-02-26T14:47:35;0;0;
84223;PMS5003;74353;51.208;0.304;2024-02-26T14:50:02;1;1;
84223;PMS5003;74353;51.208;0.304;2024-02-26T14:52:30;0;0;
84223;PMS5003;74353;51.208;0.304;2024-02-26T14:54:55;0;0;
84223;PMS5003;74353;51.208;0.304;2024-02-26T14:57:23;1;1;
84223;PMS5003;74353;51.208;0.304;2024-02-26T14:59:48;1;1;
84223;PMS5003;74353;51.208;0.304;2024-02-26T15:02:15;0;0;
84223;PMS5003;74353;51.208;0.304;2024-02-26T15:04:42;0;0;
84223;PMS5003;74353;51.208;0.304;2024-02-26T15:07:08;0;0;
84223;PMS5003;74353;51.208;0.304;2024-02-26T15:09:35;0;0;
84223;PMS5003;74353;51.208;0.304;2024-02-26T15:12:02;0;0;
84223;PMS5003;74353;51.208;0.304;2024-02-26T15:14:28;0;0;
84223;PMS5003;74353;51.208;0.304;2024-02-26T15:16:55;0;0;
84223;PMS5003;74353;51.208;0.304;2024-02-26T15:19:21;0;0;
84223;PMS5003;74353;51.208;0.304;2024-02-26T15:21:48;0;0;
84223;PMS5003;74353;51.208;0.304;2024-02-26T15:24:16;0;0;
84223;PMS5003;74353;51.208;0.304;2024-02-26T15:26:42;0;0;
84223;PMS5003;74353;51.208;0.304;2024-02-26T15:29:09;0;0;
84223;PMS5003;74353;51.208;0.304;2024-02-26T15:31:37;0;0;
84223;PMS5003;74353;51.208;0.304;2024-02-26T15:34:03;0;0;
84223;PMS5003;74353;51.208;0.304;2024-02-26T15:36:30;0;0;
84223;PMS5003;74353;51.208;0.304;2024-02-26T15:38:55;0;0;
84223;PMS5003;74353;51.208;0.304;2024-02-26T15:41:20;0;0;
84223;PMS5003;74353;51.208;0.304;2024-02-26T15:43:46;0;0;
84223;PMS5003;74353;51.208;0.304;2024-02-26T15:46:11;0;0;
84223;PMS5003;74353;51.208;0.304;2024-02-26T15:48:37;0;0;
84223;PMS5003;74353;51.208;0.304;2024-02-26T15:51:03;1;1;
84223;PMS5003;74353;51.208;0.304;2024-02-26T15:53:28;2;0;
84223;PMS5003;74353;51.208;0.304;2024-02-26T15:55:53;0;0;
84223;PMS5003;74353;51.208;0.304;2024-02-26T15:58:19;1;1;
84223;PMS5003;74353;51.208;0.304;2024-02-26T16:00:44;1;1;
84223;PMS5003;74353;51.208;0.304;2024-02-26T16:03:11;0;0;
84223;PMS5003;74353;51.208;0.304;2024-02-26T16:05:37;1;1;
84223;PMS5003;74353;51.208;0.304;2024-02-26T16:08:03;0;0;
84223;PMS5003;74353;51.208;0.304;2024-02-26T16:10:28;1;1;
84223;PMS5003;74353;51.208;0.304;2024-02-26T16:12:54;0;0;
84223;PMS5003;74353;51.208;0.304;2024-02-26T16:15:19;1;1;
84223;PMS5003;74353;51.208;0.304;2024-02-26T16:17:45;6;2;
84223;PMS5003;74353;51.208;0.304;2024-02-26T16:20:13;0;0;
84223;PMS5003;74353;51.208;0.304;2024-02-26T16:22:40;1;1;
84223;PMS5003;74353;51.208;0.304;2024-02-26T16:25:06;0;0;
84223;PMS5003;74353;51.208;0.304;2024-02-26T16:27:31;1;1;
84223;PMS5003;74353;51.208;0.304;2024-02-26T16:29:57;0;0;
84223;PMS5003;74353;51.208;0.304;2024-02-26T16:32:24;8;8;
84223;PMS5003;74353;51.208;0.304;2024-02-26T16:34:49;0;0;
84223;PMS5003;74353;51.208;0.304;2024-02-26T16:37:17;0;0;
84223;PMS5003;74353;51.208;0.304;2024-02-26T16:39:43;0;0;